createdAt,value
2022-09-01T00:00:01.814Z,14.40
2022-09-01T00:02:34.840Z,14.23
2022-09-01T00:05:06.135Z,13.77
2022-09-01T00:07:36.740Z,13.43
2022-09-01T00:10:08.341Z,13.00
2022-09-01T00:12:37.019Z,15.60
2022-09-01T00:15:07.164Z,17.97
2022-09-01T00:17:35.943Z,13.87
2022-09-01T00:20:04.917Z,13.57
2022-09-01T00:22:33.813Z,11.17
2022-09-01T00:25:03.067Z,13.33
2022-09-01T00:27:31.271Z,12.40
2022-09-01T00:29:59.379Z,15.43
2022-09-01T00:32:27.638Z,16.30
2022-09-01T00:34:55.399Z,15.63
2022-09-01T00:37:24.022Z,21.33
2022-09-01T00:39:51.695Z,18.47
2022-09-01T00:42:21.483Z,17.47
2022-09-01T00:44:49.476Z,17.07
2022-09-01T00:47:19.453Z,18.97
2022-09-01T00:49:50.375Z,18.90
2022-09-01T00:52:23.547Z,19.13
2022-09-01T00:54:58.218Z,16.33
2022-09-01T00:57:28.818Z,17.50
2022-09-01T01:00:01.513Z,17.60
2022-09-01T01:02:29.782Z,14.57
2022-09-01T01:05:00.537Z,16.83
2022-09-01T01:07:29.842Z,15.17
2022-09-01T01:09:58.290Z,17.07
2022-09-01T01:12:28.471Z,15.80
2022-09-01T01:14:57.031Z,17.30
2022-09-01T01:17:26.095Z,17.93
2022-09-01T01:20:14.328Z,17.13
2022-09-01T01:23:06.783Z,16.93
2022-09-01T01:25:41.880Z,17.53
2022-09-01T01:28:16.099Z,18.53
2022-09-01T01:30:52.235Z,19.73
2022-09-01T01:33:22.716Z,17.50
2022-09-01T01:35:52.858Z,18.73
2022-09-01T01:38:23.261Z,20.97
2022-09-01T01:40:55.546Z,18.20
2022-09-01T01:43:26.769Z,18.73
2022-09-01T01:45:59.022Z,17.33
2022-09-01T01:48:34.911Z,16.67
2022-09-01T01:51:04.559Z,16.73
2022-09-01T01:53:34.367Z,17.60
2022-09-01T01:56:06.197Z,19.07
2022-09-01T01:58:37.152Z,19.37
2022-09-01T02:01:13.145Z,15.63
2022-09-01T02:03:41.966Z,17.30
2022-09-01T02:06:12.184Z,18.90
2022-09-01T02:08:42.389Z,16.97
2022-09-01T02:11:13.145Z,15.77
2022-09-01T02:13:41.743Z,18.67
2022-09-01T02:16:13.007Z,18.40
2022-09-01T02:18:48.445Z,18.83
2022-09-01T02:21:19.680Z,19.70
2022-09-01T02:23:49.689Z,17.93
2022-09-01T02:26:23.714Z,17.93
2022-09-01T02:28:55.382Z,18.10
2022-09-01T02:31:28.454Z,16.43
2022-09-01T02:34:01.264Z,16.43
2022-09-01T02:36:32.762Z,16.70
2022-09-01T02:39:02.177Z,31.17
2022-09-01T02:41:34.391Z,16.40
2022-09-01T02:44:04.283Z,14.33
2022-09-01T02:46:32.719Z,13.40
2022-09-01T02:49:04.569Z,14.93
2022-09-01T02:51:33.319Z,15.13
2022-09-01T02:54:01.979Z,14.83
2022-09-01T02:56:31.108Z,13.83
2022-09-01T02:59:02.131Z,14.53
2022-09-01T03:01:33.077Z,15.33
2022-09-01T03:04:06.117Z,12.47
2022-09-01T03:06:36.372Z,14.33
2022-09-01T03:09:07.101Z,14.60
2022-09-01T03:11:38.914Z,15.47
2022-09-01T03:14:08.594Z,12.93
2022-09-01T03:16:37.205Z,14.70
2022-09-01T03:19:07.428Z,15.23
2022-09-01T03:21:35.566Z,14.13
2022-09-01T03:24:04.859Z,12.23
2022-09-01T03:26:32.708Z,14.17
2022-09-01T03:29:02.047Z,17.13
2022-09-01T03:31:31.176Z,16.03
2022-09-01T03:34:03.321Z,15.00
2022-09-01T03:36:35.157Z,14.90
2022-09-01T03:39:03.720Z,14.50
2022-09-01T03:41:33.335Z,14.87
2022-09-01T03:44:02.816Z,15.60
2022-09-01T03:46:36.805Z,13.50
2022-09-01T03:49:08.048Z,14.00
2022-09-01T03:51:38.939Z,14.73
2022-09-01T03:54:09.052Z,15.13
2022-09-01T03:56:40.023Z,13.83
2022-09-01T03:59:16.618Z,14.77
2022-09-01T04:01:46.223Z,15.43
2022-09-01T04:04:15.477Z,14.10
2022-09-01T04:06:44.418Z,13.00
2022-09-01T04:09:12.829Z,14.53
2022-09-01T04:11:46.254Z,13.47
2022-09-01T04:14:17.370Z,13.73
2022-09-01T04:17:05.098Z,16.73
2022-09-01T04:19:36.826Z,12.50
2022-09-01T04:22:05.360Z,14.60
2022-09-01T04:24:46.716Z,15.23
2022-09-01T04:27:15.721Z,15.80
2022-09-01T04:29:48.890Z,14.00
2022-09-01T04:32:17.319Z,16.17
2022-09-01T04:34:52.097Z,18.33
2022-09-01T04:37:22.131Z,16.73
2022-09-01T04:39:57.102Z,16.77
2022-09-01T04:42:28.936Z,13.77
2022-09-01T04:45:01.975Z,16.17
2022-09-01T04:47:35.757Z,14.43
2022-09-01T04:50:14.170Z,14.30
2022-09-01T04:52:45.604Z,16.43
2022-09-01T04:55:28.077Z,14.07
2022-09-01T04:57:56.727Z,17.03
2022-09-01T05:00:32.287Z,15.63
2022-09-01T05:03:04.296Z,15.90
2022-09-01T05:05:54.361Z,14.80
2022-09-01T05:08:25.064Z,16.50
2022-09-01T05:10:58.685Z,15.50
2022-09-01T05:13:38.885Z,15.37
2022-09-01T05:16:13.066Z,16.90
2022-09-01T05:18:48.050Z,14.90
2022-09-01T05:21:18.275Z,14.50
2022-09-01T05:23:47.118Z,19.97
2022-09-01T05:26:18.776Z,16.33
2022-09-01T05:28:48.694Z,16.90
2022-09-01T05:31:19.698Z,18.23
2022-09-01T05:33:48.404Z,16.70
2022-09-01T05:36:20.152Z,17.10
2022-09-01T05:38:49.072Z,15.10
2022-09-01T05:41:19.474Z,17.27
2022-09-01T05:43:49.855Z,14.07
2022-09-01T05:46:25.075Z,15.40
2022-09-01T05:48:56.158Z,14.87
2022-09-01T05:51:45.385Z,13.03
2022-09-01T05:54:15.072Z,16.43
2022-09-01T05:56:44.712Z,14.10
2022-09-01T05:59:25.533Z,14.10
2022-09-01T06:02:00.833Z,14.20
2022-09-01T06:04:30.293Z,14.27
2022-09-01T06:07:08.901Z,14.20
2022-09-01T06:09:40.406Z,15.40
2022-09-01T06:12:17.793Z,14.00
2022-09-01T06:14:47.266Z,11.13
2022-09-01T06:17:22.077Z,12.83
2022-09-01T06:19:52.984Z,12.87
2022-09-01T06:22:21.760Z,11.83
2022-09-01T06:24:55.703Z,11.53
2022-09-01T06:27:30.483Z,12.30
2022-09-01T06:29:58.879Z,10.43
2022-09-01T06:32:28.816Z,10.30
2022-09-01T06:34:58.143Z,14.33
2022-09-01T06:37:26.829Z,11.40
2022-09-01T06:39:59.567Z,10.80
2022-09-01T06:42:29.128Z,9.67
2022-09-01T06:45:00.387Z,9.07
2022-09-01T06:47:30.623Z,8.53
2022-09-01T06:50:00.695Z,9.87
2022-09-01T06:53:32.200Z,8.70
2022-09-01T06:55:18.225Z,8.93
2022-09-01T06:58:15.141Z,11.30
2022-09-01T07:00:50.052Z,10.37
2022-09-01T07:03:20.044Z,10.30
2022-09-01T07:06:00.716Z,9.73
2022-09-01T07:14:27.617Z,9.53
2022-09-01T07:17:23.294Z,10.07
2022-09-01T07:19:49.239Z,8.43
2022-09-01T07:28:06.107Z,8.20
2022-09-01T07:30:35.879Z,9.77
2022-09-01T07:45:25.454Z,7.43
2022-09-01T07:47:57.123Z,16.30
2022-09-01T07:50:40.288Z,9.20
2022-09-01T07:53:12.556Z,6.73
2022-09-01T07:55:42.201Z,7.90
2022-09-01T07:58:12.010Z,9.17
2022-09-01T08:00:43.541Z,7.80
2022-09-01T08:03:11.374Z,9.07
2022-09-01T08:05:39.672Z,7.60
2022-09-01T08:08:28.418Z,6.60
2022-09-01T08:11:04.927Z,9.30
2022-09-01T08:13:38.918Z,13.53
2022-09-01T08:16:17.966Z,7.50
2022-09-01T08:18:48.826Z,8.97
2022-09-01T08:21:52.326Z,9.30
2022-09-01T08:24:37.322Z,6.87
2022-09-01T08:27:06.995Z,7.67
2022-09-01T08:29:35.502Z,8.13
2022-09-01T08:32:04.521Z,8.90
2022-09-01T08:34:33.718Z,8.40
2022-09-01T08:37:01.805Z,8.20
2022-09-01T08:39:30.577Z,7.50
2022-09-01T08:42:09.690Z,6.77
2022-09-01T08:44:47.500Z,8.13
2022-09-01T08:47:28.752Z,6.77
2022-09-01T08:50:01.640Z,8.17
2022-09-01T08:53:09.004Z,7.03
2022-09-01T08:55:43.150Z,8.53
2022-09-01T08:58:16.641Z,7.53
2022-09-01T09:01:11.194Z,6.57
2022-09-01T09:03:47.727Z,7.20
2022-09-01T09:06:21.991Z,6.43
2022-09-01T09:08:56.707Z,5.87
2022-09-01T09:11:51.465Z,7.63
2022-09-01T09:14:44.053Z,15.00
2022-09-01T09:17:13.917Z,6.43
2022-09-01T09:19:43.576Z,7.20
2022-09-01T09:22:13.983Z,6.90
2022-09-01T09:24:50.874Z,7.67
2022-09-01T09:27:21.832Z,6.07
2022-09-01T09:29:53.463Z,5.40
2022-09-01T09:32:22.991Z,5.33
2022-09-01T09:34:53.726Z,6.63
2022-09-01T09:37:24.344Z,6.30
2022-09-01T09:40:11.853Z,5.50
2022-09-01T09:42:40.665Z,5.07
2022-09-01T09:45:23.135Z,4.73
2022-09-01T09:47:51.907Z,4.10
2022-09-01T09:50:25.013Z,4.20
2022-09-01T09:53:11.076Z,6.37
2022-09-01T09:55:56.037Z,3.97
2022-09-01T09:58:27.504Z,3.80
2022-09-01T10:01:07.715Z,4.10
2022-09-01T10:03:38.065Z,3.83
2022-09-01T10:06:11.946Z,3.57
2022-09-01T10:08:45.763Z,4.33
2022-09-01T10:11:33.542Z,4.40
2022-09-01T10:14:07.211Z,3.73
2022-09-01T10:16:39.865Z,4.60
2022-09-01T10:19:12.549Z,4.13
2022-09-01T10:21:43.390Z,3.23
2022-09-01T10:24:21.452Z,3.90
2022-09-01T10:26:54.251Z,3.63
2022-09-01T10:29:26.974Z,3.43
2022-09-01T10:32:21.291Z,3.70
2022-09-01T10:34:47.555Z,3.83
2022-09-01T10:37:16.332Z,4.00
2022-09-01T10:40:21.069Z,3.77
2022-09-01T10:42:57.582Z,3.73
2022-09-01T10:45:33.319Z,4.53
2022-09-01T10:48:46.121Z,4.93
2022-09-01T10:51:51.543Z,3.43
2022-09-01T10:54:58.510Z,4.17
2022-09-01T10:57:51.359Z,3.00
2022-09-01T11:03:56.493Z,3.40
2022-09-01T11:07:12.742Z,6.60
2022-09-01T11:09:43.117Z,3.47
2022-09-01T11:12:36.814Z,3.80
2022-09-01T11:15:26.866Z,3.87
2022-09-01T11:17:59.629Z,4.10
2022-09-01T11:20:33.376Z,3.37
2022-09-01T11:23:05.416Z,3.67
2022-09-01T11:25:40.635Z,3.60
2022-09-01T11:28:45.013Z,3.38
2022-09-01T11:31:23.772Z,3.20
2022-09-01T11:34:01.122Z,2.65
2022-09-01T11:36:35.757Z,3.15
2022-09-01T11:39:09.896Z,1.58
2022-09-01T11:41:55.858Z,2.90
2022-09-01T11:44:28.118Z,2.00
2022-09-01T11:47:02.405Z,2.20
2022-09-01T11:49:32.818Z,1.77
2022-09-01T11:52:03.634Z,2.37
2022-09-01T11:54:40.403Z,2.13
2022-09-01T11:57:23.960Z,2.00
2022-09-01T11:59:52.232Z,1.77
2022-09-01T12:02:23.423Z,2.10
2022-09-01T12:04:53.187Z,1.97
2022-09-01T12:07:31.662Z,1.73
2022-09-01T12:09:59.423Z,2.07
2022-09-01T12:12:31.813Z,2.00
2022-09-01T12:15:06.112Z,2.50
2022-09-01T12:17:34.845Z,1.47
2022-09-01T12:20:24.308Z,2.37
2022-09-01T12:22:56.759Z,1.57
2022-09-01T12:25:27.122Z,1.67
2022-09-01T12:27:56.099Z,2.77
2022-09-01T12:30:24.966Z,1.37
2022-09-01T12:33:22.954Z,2.77
2022-09-01T12:35:42.163Z,2.23
2022-09-01T12:38:31.264Z,2.03
2022-09-01T12:40:59.987Z,3.20
2022-09-01T12:43:35.342Z,2.33
2022-09-01T12:46:04.615Z,2.23
2022-09-01T12:48:34.586Z,2.10
2022-09-01T12:51:04.868Z,1.77
2022-09-01T12:53:37.093Z,2.93
2022-09-01T12:56:29.755Z,3.40
2022-09-01T12:59:10.745Z,1.80
2022-09-01T13:01:45.012Z,2.43
2022-09-01T13:04:29.778Z,1.47
2022-09-01T13:07:03.856Z,2.03
2022-09-01T13:09:33.199Z,2.20
2022-09-01T13:12:13.200Z,3.00
2022-09-01T13:14:40.856Z,5.53
2022-09-01T13:17:14.066Z,2.80
2022-09-01T13:19:42.523Z,2.83
2022-09-01T13:22:11.301Z,1.90
2022-09-01T13:24:40.856Z,1.60
2022-09-01T13:27:24.307Z,2.97
2022-09-01T13:29:52.847Z,2.43
2022-09-01T13:32:22.864Z,2.10
2022-09-01T13:34:53.596Z,1.67
2022-09-01T13:37:22.929Z,1.60
2022-09-01T13:39:52.056Z,1.40
2022-09-01T13:42:20.857Z,1.63
2022-09-01T13:44:52.594Z,1.50
2022-09-01T13:47:31.853Z,1.70
2022-09-01T13:50:18.724Z,1.47
2022-09-01T13:52:55.255Z,1.77
2022-09-01T13:55:27.379Z,2.13
2022-09-01T13:57:55.968Z,1.50
2022-09-01T14:00:25.593Z,2.70
2022-09-01T14:02:56.542Z,1.73
2022-09-01T14:05:26.897Z,2.20
2022-09-01T14:07:56.216Z,1.90
2022-09-01T14:10:26.762Z,2.30
2022-09-01T14:12:55.163Z,1.60
2022-09-01T14:15:27.155Z,3.17
2022-09-01T14:17:57.430Z,1.70
2022-09-01T14:20:26.947Z,2.23
2022-09-01T14:22:56.360Z,1.40
2022-09-01T14:25:26.447Z,1.80
2022-09-01T14:27:54.740Z,2.07
2022-09-01T14:30:29.040Z,1.63
2022-09-01T14:33:00.317Z,1.50
2022-09-01T14:35:28.814Z,1.63
2022-09-01T14:37:59.477Z,1.93
2022-09-01T14:40:29.171Z,2.10
2022-09-01T14:42:57.369Z,4.97
2022-09-01T14:45:27.639Z,13.83
2022-09-01T14:47:57.469Z,2.53
2022-09-01T14:50:26.642Z,2.93
2022-09-01T14:52:57.641Z,2.03
2022-09-01T14:55:28.481Z,1.70
2022-09-01T14:57:58.365Z,1.63
2022-09-01T15:00:26.489Z,2.17
2022-09-01T15:02:56.344Z,2.70
2022-09-01T15:05:25.046Z,1.90
2022-09-01T15:07:54.755Z,1.20
2022-09-01T15:10:25.811Z,1.93
2022-09-01T15:12:58.472Z,2.60
2022-09-01T15:15:27.876Z,1.33
2022-09-01T15:17:56.723Z,2.23
2022-09-01T15:20:42.690Z,1.50
2022-09-01T15:23:11.688Z,1.93
2022-09-01T15:25:39.455Z,4.40
2022-09-01T15:28:10.429Z,1.10
2022-09-01T15:30:39.806Z,2.83
2022-09-01T15:33:13.213Z,2.73
2022-09-01T15:35:43.653Z,1.30
2022-09-01T15:38:16.163Z,1.70
2022-09-01T15:40:57.840Z,4.43
2022-09-01T15:43:28.664Z,1.20
2022-09-01T15:45:58.257Z,1.37
2022-09-01T15:48:28.070Z,1.93
2022-09-01T15:51:18.338Z,3.33
2022-09-01T15:53:46.790Z,1.73
2022-09-01T15:56:14.494Z,1.27
2022-09-01T15:59:00.098Z,1.90
2022-09-01T16:01:30.304Z,1.27
2022-09-01T16:03:58.106Z,1.23
2022-09-01T16:06:26.399Z,0.90
2022-09-01T16:08:54.790Z,1.27
2022-09-01T16:11:24.019Z,1.90
2022-09-01T16:13:54.500Z,3.60
2022-09-01T16:16:38.656Z,1.40
2022-09-01T16:19:21.385Z,1.40
2022-09-01T16:21:54.707Z,1.93
2022-09-01T16:24:23.356Z,1.80
2022-09-01T16:26:51.019Z,5.47
2022-09-01T16:29:35.879Z,2.43
2022-09-01T16:32:03.885Z,1.73
2022-09-01T16:34:32.947Z,1.27
2022-09-01T16:37:07.207Z,4.83
2022-09-01T16:39:43.486Z,1.23
2022-09-01T16:42:22.120Z,2.00
2022-09-01T16:45:02.007Z,1.60
2022-09-01T16:47:48.951Z,1.10
2022-09-01T16:50:28.582Z,1.57
2022-09-01T16:53:16.355Z,1.17
2022-09-01T16:55:58.759Z,1.33
2022-09-01T16:58:39.124Z,1.20
2022-09-01T17:01:23.675Z,1.47
2022-09-01T17:04:06.522Z,0.83
2022-09-01T17:06:40.973Z,1.00
2022-09-01T17:09:12.994Z,0.87
2022-09-01T17:11:49.441Z,0.80
2022-09-01T17:14:22.502Z,1.27
2022-09-01T17:16:55.418Z,1.13
2022-09-01T17:19:23.575Z,1.00
2022-09-01T17:21:57.135Z,0.60
2022-09-01T17:24:35.135Z,2.50
2022-09-01T17:27:10.940Z,1.17
2022-09-01T17:29:43.485Z,0.97
2022-09-01T17:32:22.179Z,1.03
2022-09-01T17:34:58.219Z,0.70
2022-09-01T17:37:40.318Z,1.83
2022-09-01T17:40:18.560Z,1.77
2022-09-01T17:42:55.200Z,0.93
2022-09-01T17:45:29.041Z,1.70
2022-09-01T17:48:08.931Z,1.03
2022-09-01T17:53:32.033Z,0.93
2022-09-01T17:56:08.030Z,1.37
2022-09-01T17:58:47.815Z,0.97
2022-09-01T18:01:25.590Z,1.07
2022-09-01T18:04:13.607Z,0.97
2022-09-01T18:06:49.058Z,0.87
2022-09-01T18:09:21.533Z,1.57
2022-09-01T18:11:55.193Z,1.40
2022-09-01T18:14:28.172Z,0.87
2022-09-01T18:17:03.653Z,0.87
2022-09-01T18:19:38.198Z,1.20
2022-09-01T18:22:11.227Z,1.50
2022-09-01T18:24:48.455Z,1.00
2022-09-01T18:27:16.689Z,1.13
2022-09-01T18:29:46.347Z,2.33
2022-09-01T18:32:25.333Z,1.20
2022-09-01T18:35:04.366Z,1.00
2022-09-01T18:37:43.019Z,0.90
2022-09-01T18:40:20.003Z,1.20
2022-09-01T18:42:58.056Z,1.40
2022-09-01T18:45:35.871Z,0.97
2022-09-01T18:48:16.881Z,1.33
2022-09-01T18:50:53.113Z,1.07
2022-09-01T18:53:34.345Z,0.83
2022-09-01T18:56:07.620Z,1.13
2022-09-01T18:58:50.944Z,1.00
2022-09-01T19:01:30.291Z,1.07
2022-09-01T19:04:10.391Z,0.80
2022-09-01T19:06:53.134Z,0.73
2022-09-01T19:09:28.627Z,1.30
2022-09-01T19:12:10.531Z,0.67
2022-09-01T19:14:46.352Z,1.23
2022-09-01T19:17:42.089Z,0.77
2022-09-01T19:20:13.465Z,0.90
2022-09-01T19:22:50.423Z,1.90
2022-09-01T19:25:37.507Z,1.07
2022-09-01T19:28:12.517Z,1.10
2022-09-01T19:30:47.662Z,1.47
2022-09-01T19:33:19.963Z,1.50
2022-09-01T19:35:52.459Z,0.77
2022-09-01T19:38:27.732Z,1.00
2022-09-01T19:41:02.315Z,1.50
2022-09-01T19:43:34.774Z,1.87
2022-09-01T19:46:13.199Z,3.53
2022-09-01T19:48:47.627Z,0.80
2022-09-01T19:51:20.228Z,0.90
2022-09-01T19:53:55.486Z,0.87
2022-09-01T19:56:28.840Z,1.30
2022-09-01T19:59:01.604Z,1.17
2022-09-01T20:01:40.508Z,1.00
2022-09-01T20:04:18.820Z,1.00
2022-09-01T20:06:51.274Z,1.33
2022-09-01T20:09:26.100Z,1.63
2022-09-01T20:11:58.794Z,2.33
2022-09-01T20:14:45.705Z,0.97
2022-09-01T20:17:21.720Z,1.50
2022-09-01T20:19:56.600Z,0.73
2022-09-01T20:22:32.540Z,0.97
2022-09-01T20:25:10.140Z,2.13
2022-09-01T20:27:48.388Z,0.93
2022-09-01T20:30:20.095Z,0.70
2022-09-01T20:32:55.178Z,2.70
2022-09-01T20:35:30.553Z,2.00
2022-09-01T20:38:03.167Z,1.47
2022-09-01T20:40:36.009Z,1.40
2022-09-01T20:43:12.897Z,1.53
2022-09-01T20:45:40.992Z,1.00
2022-09-01T20:48:14.710Z,5.30
2022-09-01T20:50:52.822Z,1.47
2022-09-01T20:53:37.505Z,1.80
2022-09-01T20:56:12.984Z,1.97
2022-09-01T20:58:44.737Z,1.20
2022-09-01T21:01:19.214Z,1.40
2022-09-01T21:03:58.832Z,2.17
2022-09-01T21:06:40.187Z,1.30
2022-09-01T21:09:13.670Z,2.10
2022-09-01T21:11:48.471Z,1.40
2022-09-01T21:14:31.503Z,1.23
2022-09-01T21:17:08.907Z,1.57
2022-09-01T21:19:47.400Z,1.30
2022-09-01T21:22:21.684Z,1.20
2022-09-01T21:24:51.199Z,2.30
2022-09-01T21:27:24.220Z,2.13
2022-09-01T21:29:58.534Z,1.33
2022-09-01T21:32:27.403Z,1.10
2022-09-01T21:34:55.572Z,1.40
2022-09-01T21:37:24.275Z,0.80
2022-09-01T21:39:54.364Z,1.47
2022-09-01T21:42:27.010Z,1.10
2022-09-01T21:44:57.191Z,0.93
2022-09-01T21:47:25.443Z,0.97
2022-09-01T21:49:53.492Z,1.43
2022-09-01T21:52:21.354Z,1.60
2022-09-01T21:54:49.783Z,3.00
2022-09-01T21:57:17.658Z,2.47
2022-09-01T21:59:47.180Z,1.30
2022-09-01T22:02:14.930Z,0.93
2022-09-01T22:04:43.461Z,0.90
2022-09-01T22:07:15.123Z,1.43
2022-09-01T22:09:43.550Z,1.03
2022-09-01T22:12:12.035Z,1.10
2022-09-01T22:14:39.862Z,1.20
2022-09-01T22:17:08.962Z,1.70
2022-09-01T22:19:36.943Z,1.30
2022-09-01T22:22:05.167Z,1.60
2022-09-01T22:24:33.853Z,1.23
2022-09-01T22:27:01.595Z,3.43
2022-09-01T22:29:29.738Z,2.90
2022-09-01T22:31:57.377Z,1.63
2022-09-01T22:34:26.955Z,1.50
2022-09-01T22:36:54.596Z,2.27
2022-09-01T22:39:25.250Z,1.73
2022-09-01T22:41:53.967Z,1.90
2022-09-01T22:44:22.408Z,2.20
2022-09-01T22:46:50.282Z,1.90
2022-09-01T22:49:18.759Z,1.60
2022-09-01T22:51:47.776Z,1.80
2022-09-01T22:54:16.286Z,1.53
2022-09-01T22:56:45.161Z,2.40
2022-09-01T22:59:15.312Z,1.93
2022-09-01T23:01:47.588Z,1.83
2022-09-01T23:04:17.607Z,1.27
2022-09-01T23:06:49.563Z,1.33
2022-09-01T23:09:19.752Z,1.77
2022-09-01T23:11:49.077Z,1.90
2022-09-01T23:14:18.498Z,2.03
2022-09-01T23:16:47.082Z,1.33
2022-09-01T23:19:20.251Z,2.97
2022-09-01T23:21:51.025Z,1.90
2022-09-01T23:24:19.904Z,1.60
2022-09-01T23:26:48.387Z,2.03
2022-09-01T23:29:16.752Z,1.80
2022-09-01T23:31:44.612Z,1.50
2022-09-01T23:34:13.875Z,1.83
2022-09-01T23:36:42.841Z,1.83
2022-09-01T23:39:11.967Z,1.77
2022-09-01T23:41:40.194Z,3.53
2022-09-01T23:44:10.412Z,1.43
2022-09-01T23:46:41.000Z,2.97
2022-09-01T23:49:09.613Z,2.63
2022-09-01T23:51:38.831Z,1.73
2022-09-01T23:54:07.211Z,4.27
2022-09-01T23:56:36.723Z,2.10
2022-09-01T23:59:04.936Z,1.60
